Time;durP1;ratioP1;P1;durP2;ratioP2;P2;SDS_P1;SDS_P2;PMS_P1;PMS_P2;Temp;Humidity;BMP_temperature;BMP_pressure;BME280_temperature;BME280_humidity;BME280_pressure;Samples;Min_cycle;Max_cycle;Signal;HPM_P1;HPM_P2
2022/03/15 00:00:46;;;;;;;4.77;1.67;;;3.60;94.40;;;;;;2065821;28;20189;-69
2022/03/15 00:01:47;;;;;;;4.75;2.05;;;3.60;94.40;;;;;;2065260;28;20215;-68
2022/03/15 00:02:49;;;;;;;3.77;1.80;;;3.70;94.20;;;;;;2065304;28;20210;-68
2022/03/15 00:03:50;;;;;;;4.88;1.50;;;3.60;94.10;;;;;;2065685;28;20179;-69
2022/03/15 00:04:51;;;;;;;3.57;1.90;;;3.60;94.40;;;;;;2065343;28;20617;-69
2022/03/15 00:05:51;;;;;;;3.57;1.90;;;3.70;94.20;;;;;;2065029;28;21019;-69
2022/03/15 00:06:53;;;;;;;4.83;1.80;;;3.70;94.10;;;;;;2065904;28;20204;-69
2022/03/15 00:07:53;;;;;;;4.43;1.58;;;3.70;94.30;;;;;;2065597;28;20480;-68
2022/03/15 00:08:54;;;;;;;3.53;1.90;;;3.70;94.40;;;;;;2065109;28;20195;-68
2022/03/15 00:09:55;;;;;;;2.87;2.00;;;3.70;94.20;;;;;;2064882;28;20226;-68
2022/03/15 00:10:58;;;;;;;4.03;1.93;;;3.70;94.20;;;;;;2065599;28;20267;-68
2022/03/15 00:12:01;;;;;;;3.40;2.00;;;3.80;94.40;;;;;;2056248;28;20209;-68
2022/03/15 00:13:02;;;;;;;5.72;1.70;;;3.80;94.20;;;;;;2057537;28;20203;-69
2022/03/15 00:14:04;;;;;;;2.30;1.77;;;3.70;94.40;;;;;;2065240;28;20191;-69
2022/03/15 00:15:07;;;;;;;2.38;1.40;;;3.80;94.60;;;;;;2065579;28;20191;-69
2022/03/15 00:16:09;;;;;;;5.40;1.85;;;3.80;94.60;;;;;;2065395;28;20186;-69
2022/03/15 00:17:10;;;;;;;3.40;1.63;;;3.80;94.70;;;;;;2064942;28;20267;-69
2022/03/15 00:18:11;;;;;;;4.30;1.83;;;3.70;95.30;;;;;;2056928;28;20202;-69
2022/03/15 00:19:12;;;;;;;3.73;1.90;;;3.70;95.00;;;;;;2064987;28;20179;-68
2022/03/15 00:20:17;;;;;;;4.40;2.22;;;3.80;95.00;;;;;;2064779;28;20189;-68
2022/03/15 00:21:19;;;;;;;3.13;1.67;;;3.80;94.60;;;;;;2064332;28;20230;-69
2022/03/15 00:22:20;;;;;;;3.78;1.80;;;3.80;94.50;;;;;;2065218;28;20227;-68
2022/03/15 00:23:20;;;;;;;3.67;1.80;;;3.90;94.60;;;;;;2065579;28;20535;-69
2022/03/15 00:24:22;;;;;;;2.40;1.70;;;3.90;94.40;;;;;;2065449;28;20210;-68
2022/03/15 00:25:23;;;;;;;2.90;1.58;;;3.90;94.10;;;;;;2065558;28;20271;-68
2022/03/15 00:26:24;;;;;;;4.10;1.80;;;3.90;94.00;;;;;;2064757;28;20223;-69
2022/03/15 00:27:25;;;;;;;5.10;1.90;;;3.90;93.40;;;;;;2056891;28;20799;-69
2022/03/15 00:28:25;;;;;;;2.30;1.40;;;3.80;94.10;;;;;;2064888;28;20179;-68
2022/03/15 00:29:26;;;;;;;3.42;1.70;;;3.90;93.20;;;;;;2064827;28;20230;-68
2022/03/15 00:30:27;;;;;;;4.00;1.70;;;3.90;93.40;;;;;;2064786;28;20238;-68
2022/03/15 00:31:28;;;;;;;3.70;1.70;;;3.80;93.70;;;;;;2064883;28;20209;-69
2022/03/15 00:32:29;;;;;;;3.97;1.73;;;3.80;94.30;;;;;;2064643;28;20630;-69
2022/03/15 00:33:30;;;;;;;2.87;1.90;;;3.70;94.80;;;;;;2056945;28;20231;-69
2022/03/15 00:34:31;;;;;;;3.95;1.90;;;3.80;95.00;;;;;;2064645;28;20455;-68
2022/03/15 00:35:32;;;;;;;2.47;1.30;;;3.70;95.10;;;;;;2065053;28;20260;-68
2022/03/15 00:36:35;;;;;;;2.97;2.00;;;3.70;95.00;;;;;;2065452;28;20184;-68
2022/03/15 00:37:36;;;;;;;3.65;1.77;;;3.80;94.80;;;;;;2065323;28;20592;-68
2022/03/15 00:38:37;;;;;;;3.13;1.60;;;3.70;94.10;;;;;;2072765;28;20245;-69
2022/03/15 00:39:38;;;;;;;4.25;2.05;;;3.80;94.20;;;;;;2064830;28;20184;-68
2022/03/15 00:40:40;;;;;;;2.77;1.67;;;3.80;94.20;;;;;;2056823;28;20186;-69
2022/03/15 00:41:40;;;;;;;2.50;1.70;;;3.80;94.10;;;;;;2056363;28;20183;-69
2022/03/15 00:42:48;;;;;;;1.73;1.50;;;3.80;94.00;;;;;;2064701;28;20213;-69
2022/03/15 00:43:50;;;;;;;3.85;1.67;;;3.90;94.10;;;;;;2064863;28;20190;-68
2022/03/15 00:44:50;;;;;;;4.85;2.05;;;3.90;94.40;;;;;;2064823;28;20190;-69
2022/03/15 00:45:51;;;;;;;3.23;2.10;;;3.90;94.30;;;;;;2056679;28;20271;-69
2022/03/15 00:46:52;;;;;;;3.33;1.60;;;3.90;94.20;;;;;;2056806;28;20180;-68
2022/03/15 00:47:54;;;;;;;4.30;2.03;;;4.00;93.90;;;;;;2065293;28;20188;-70
2022/03/15 00:48:55;;;;;;;4.65;1.90;;;4.00;93.50;;;;;;2065340;28;20176;-70
2022/03/15 00:49:56;;;;;;;4.03;1.93;;;3.90;93.50;;;;;;2065273;28;20247;-69
2022/03/15 00:50:56;;;;;;;3.37;1.60;;;4.00;93.40;;;;;;2064674;28;20279;-68
2022/03/15 00:51:57;;;;;;;4.03;1.47;;;4.00;92.90;;;;;;2064019;28;20180;-69
2022/03/15 00:52:59;;;;;;;7.77;2.10;;;3.90;92.90;;;;;;2065260;28;20224;-69
2022/03/15 00:54:00;;;;;;;3.33;1.83;;;3.80;93.70;;;;;;2072524;28;20192;-69
2022/03/15 00:55:01;;;;;;;2.17;1.58;;;3.90;93.90;;;;;;2072612;28;20198;-70
2022/03/15 00:56:02;;;;;;;3.80;1.50;;;3.80;94.20;;;;;;2064250;28;20183;-69
2022/03/15 00:57:03;;;;;;;6.13;1.67;;;3.80;94.30;;;;;;2064539;28;20584;-70
2022/03/15 00:58:05;;;;;;;4.30;1.80;;;3.80;94.60;;;;;;2064544;28;20178;-70
2022/03/15 00:59:07;;;;;;;3.67;1.85;;;3.80;94.50;;;;;;2063946;28;20717;-69
2022/03/15 01:00:11;;;;;;;3.35;1.85;;;3.80;94.20;;;;;;2057234;28;20622;-70
2022/03/15 01:01:12;;;;;;;4.85;1.83;;;3.80;94.20;;;;;;2056580;28;20222;-70
2022/03/15 01:02:12;;;;;;;2.80;1.60;;;3.80;94.10;;;;;;2064539;28;20654;-70
2022/03/15 01:03:13;;;;;;;3.33;1.60;;;3.80;94.00;;;;;;2065501;28;20583;-70
2022/03/15 01:04:14;;;;;;;2.60;1.70;;;3.80;94.10;;;;;;2065145;28;20180;-70
2022/03/15 01:05:15;;;;;;;5.27;1.60;;;3.70;94.40;;;;;;2065297;28;20221;-70
2022/03/15 01:06:16;;;;;;;5.10;1.90;;;3.70;94.70;;;;;;2064486;28;20856;-70
2022/03/15 01:07:17;;;;;;;3.53;1.70;;;3.70;94.90;;;;;;2066210;28;20198;-70
2022/03/15 01:08:18;;;;;;;2.90;1.63;;;3.70;94.90;;;;;;2067325;28;20179;-70
2022/03/15 01:09:18;;;;;;;4.20;1.70;;;3.80;95.40;;;;;;2067126;28;20684;-70
2022/03/15 01:10:20;;;;;;;3.17;1.60;;;3.90;94.80;;;;;;2065199;28;20208;-70
2022/03/15 01:11:21;;;;;;;2.10;1.42;;;3.80;94.50;;;;;;2064441;28;20187;-70
2022/03/15 01:12:21;;;;;;;4.83;1.60;;;3.90;94.90;;;;;;2064397;28;20201;-70
2022/03/15 01:13:22;;;;;;;4.50;1.90;;;3.90;94.70;;;;;;2064804;28;20179;-70
2022/03/15 01:14:24;;;;;;;3.50;1.40;;;3.80;94.50;;;;;;2065183;28;20187;-70
2022/03/15 01:15:25;;;;;;;3.50;1.58;;;3.80;94.70;;;;;;2065378;28;20855;-70
2022/03/15 01:16:26;;;;;;;3.07;1.40;;;3.90;94.90;;;;;;2064601;28;20218;-70
2022/03/15 01:17:27;;;;;;;4.80;1.70;;;4.00;94.30;;;;;;2064205;28;20479;-70
2022/03/15 01:18:30;;;;;;;4.73;1.80;;;4.00;94.20;;;;;;2057109;28;20585;-70
2022/03/15 01:19:30;;;;;;;2.92;1.52;;;4.00;94.10;;;;;;2056597;28;20233;-70
2022/03/15 01:20:31;;;;;;;3.37;1.57;;;4.00;94.00;;;;;;2056537;28;20700;-70
2022/03/15 01:21:37;;;;;;;3.23;1.83;;;4.10;94.30;;;;;;2056538;28;20844;-70
2022/03/15 01:22:39;;;;;;;6.25;1.60;;;4.10;94.20;;;;;;2057361;28;20238;-69
2022/03/15 01:23:40;;;;;;;4.03;1.50;;;4.10;94.20;;;;;;2057255;28;20180;-69
2022/03/15 01:24:41;;;;;;;3.75;1.88;;;4.10;94.10;;;;;;2056346;28;20192;-69
2022/03/15 01:25:42;;;;;;;3.20;1.57;;;4.10;94.00;;;;;;2056496;28;20194;-69
2022/03/15 01:26:43;;;;;;;3.63;1.53;;;4.00;94.10;;;;;;2057184;28;20223;-69
2022/03/15 01:27:43;;;;;;;3.93;1.60;;;4.00;94.40;;;;;;2057089;28;20715;-69
2022/03/15 01:28:44;;;;;;;2.47;1.60;;;4.00;94.40;;;;;;2056822;28;20248;-69
2022/03/15 01:29:44;;;;;;;2.07;1.60;;;4.00;94.10;;;;;;2057053;28;20188;-69
2022/03/15 01:30:45;;;;;;;5.03;1.83;;;4.10;93.80;;;;;;2056912;28;20181;-69
2022/03/15 01:31:47;;;;;;;2.63;1.60;;;4.10;93.90;;;;;;2056394;28;20196;-68
2022/03/15 01:32:47;;;;;;;2.70;1.60;;;4.10;93.90;;;;;;2056119;28;20233;-69
2022/03/15 01:33:48;;;;;;;2.67;1.73;;;4.00;94.20;;;;;;2048427;29;20309;-70
2022/03/15 01:34:48;;;;;;;5.03;1.80;;;3.90;94.40;;;;;;2056313;28;20236;-69
2022/03/15 01:35:49;;;;;;;7.03;2.23;;;3.90;94.50;;;;;;2056915;28;20180;-69
2022/03/15 01:36:50;;;;;;;3.97;2.00;;;4.00;94.10;;;;;;2057062;28;20182;-69
2022/03/15 01:37:51;;;;;;;3.65;1.65;;;3.90;93.90;;;;;;2056790;28;20219;-69
2022/03/15 01:38:53;;;;;;;2.87;1.47;;;3.80;94.40;;;;;;2056379;28;20673;-68
2022/03/15 01:39:53;;;;;;;2.72;1.60;;;3.90;94.40;;;;;;2048400;28;20185;-69
2022/03/15 01:40:54;;;;;;;3.43;1.57;;;3.90;94.40;;;;;;2056367;28;20185;-70
2022/03/15 01:41:55;;;;;;;3.40;2.00;;;3.90;94.60;;;;;;2056206;28;20178;-69
2022/03/15 01:42:56;;;;;;;3.97;1.43;;;3.90;94.60;;;;;;2056914;28;20197;-69
2022/03/15 01:43:56;;;;;;;5.83;1.30;;;3.90;94.40;;;;;;2056876;28;20260;-70
2022/03/15 01:45:02;;;;;;;3.00;1.73;;;3.90;94.60;;;;;;2056877;28;20236;-69
2022/03/15 01:46:03;;;;;;;6.38;2.28;;;4.00;94.50;;;;;;2056241;28;20214;-69
2022/03/15 01:47:04;;;;;;;5.23;2.07;;;4.00;94.50;;;;;;2056301;28;20196;-69
2022/03/15 01:48:08;;;;;;;4.57;2.30;;;4.00;94.00;;;;;;2064229;28;20177;-69
2022/03/15 01:49:09;;;;;;;3.03;1.83;;;4.10;94.00;;;;;;2063938;28;20192;-69
2022/03/15 01:50:10;;;;;;;3.85;1.60;;;4.10;93.80;;;;;;2064091;28;20238;-69
2022/03/15 01:51:15;;;;;;;5.57;1.80;;;4.10;94.00;;;;;;2055652;28;20191;-69
2022/03/15 01:52:16;;;;;;;4.25;2.00;;;4.10;93.90;;;;;;2056125;28;20282;-69
2022/03/15 01:53:17;;;;;;;3.50;1.77;;;4.20;94.00;;;;;;2056278;28;20189;-70
2022/03/15 01:54:20;;;;;;;4.83;1.60;;;4.20;93.90;;;;;;2056039;28;20189;-69
2022/03/15 01:55:21;;;;;;;6.72;1.85;;;4.20;93.90;;;;;;2064111;28;20649;-69
2022/03/15 01:56:23;;;;;;;6.00;1.87;;;4.10;94.10;;;;;;2064181;28;20188;-69
2022/03/15 01:57:24;;;;;;;4.70;1.90;;;4.00;94.70;;;;;;2057019;28;20242;-69
2022/03/15 01:58:25;;;;;;;4.43;2.10;;;4.00;94.90;;;;;;2056218;28;20687;-69
2022/03/15 01:59:26;;;;;;;3.72;1.85;;;4.00;95.00;;;;;;2056244;28;20219;-68
2022/03/15 02:00:26;;;;;;;3.07;1.60;;;4.10;95.00;;;;;;2064156;28;20180;-69
2022/03/15 02:01:28;;;;;;;3.37;1.97;;;4.10;94.70;;;;;;2056152;28;20537;-69
2022/03/15 02:02:28;;;;;;;3.88;1.70;;;4.10;94.60;;;;;;2055997;28;20292;-68
2022/03/15 02:03:32;;;;;;;3.77;1.87;;;4.20;94.00;;;;;;2048355;29;20185;-69
2022/03/15 02:04:36;;;;;;;1.90;1.30;;;4.20;93.40;;;;;;2048423;28;20543;-69
2022/03/15 02:05:37;;;;;;;3.00;1.30;;;4.10;93.60;;;;;;2062502;28;20203;-69
2022/03/15 02:06:41;;;;;;;5.33;1.60;;;4.10;94.00;;;;;;2064617;28;20629;-69
2022/03/15 02:07:42;;;;;;;2.90;1.40;;;4.10;93.80;;;;;;2064008;28;20186;-69
2022/03/15 02:08:43;;;;;;;3.73;1.40;;;3.90;93.60;;;;;;2064101;28;20194;-70
2022/03/15 02:09:43;;;;;;;5.03;1.63;;;3.80;94.10;;;;;;2064790;28;20188;-69
2022/03/15 02:10:45;;;;;;;3.63;1.40;;;3.70;94.30;;;;;;2064676;28;20189;-68
2022/03/15 02:11:46;;;;;;;4.65;1.40;;;3.60;94.80;;;;;;2064141;28;20185;-69
2022/03/15 02:12:47;;;;;;;3.90;1.30;;;3.60;94.90;;;;;;2064453;28;20218;-69
2022/03/15 02:13:49;;;;;;;4.90;1.50;;;3.60;95.30;;;;;;2064772;28;20213;-68
2022/03/15 02:14:50;;;;;;;5.85;1.48;;;3.50;95.50;;;;;;2064001;28;20207;-70
2022/03/15 02:15:50;;;;;;;3.77;1.37;;;3.50;95.60;;;;;;2056323;28;20246;-70
2022/03/15 02:16:52;;;;;;;4.10;1.40;;;3.50;95.80;;;;;;2056028;28;20197;-70
2022/03/15 02:17:53;;;;;;;2.92;1.30;;;3.60;95.80;;;;;;2063999;28;20216;-69
2022/03/15 02:18:57;;;;;;;2.73;1.30;;;3.60;95.70;;;;;;2064463;28;20217;-68
2022/03/15 02:19:58;;;;;;;3.05;1.55;;;3.70;95.50;;;;;;2063993;28;20666;-68
2022/03/15 02:20:59;;;;;;;4.70;1.50;;;3.70;95.50;;;;;;2056229;28;20187;-68
2022/03/15 02:21:59;;;;;;;3.73;1.40;;;3.70;95.30;;;;;;2063422;28;20185;-69
2022/03/15 02:23:00;;;;;;;4.13;1.60;;;3.70;95.30;;;;;;2063925;28;20175;-69
2022/03/15 02:24:01;;;;;;;3.30;1.87;;;3.80;95.30;;;;;;2063942;28;20562;-69
2022/03/15 02:25:03;;;;;;;4.18;1.58;;;3.90;95.00;;;;;;2063872;28;20547;-69
2022/03/15 02:26:03;;;;;;;2.17;1.60;;;3.90;94.80;;;;;;2063950;28;20647;-69
2022/03/15 02:27:04;;;;;;;5.67;1.77;;;3.80;95.30;;;;;;2064461;28;20174;-69
2022/03/15 02:28:05;;;;;;;3.20;1.77;;;3.90;95.30;;;;;;2064583;28;20194;-69
2022/03/15 02:29:06;;;;;;;3.60;1.57;;;3.90;95.30;;;;;;2063753;28;20183;-70
2022/03/15 02:30:08;;;;;;;4.00;1.50;;;3.80;95.00;;;;;;2056046;28;20432;-69
2022/03/15 02:31:08;;;;;;;3.40;1.40;;;3.80;94.70;;;;;;2055338;28;20226;-70
2022/03/15 02:32:09;;;;;;;2.73;1.27;;;3.70;94.90;;;;;;2055785;28;20231;-70
2022/03/15 02:33:10;;;;;;;4.30;1.60;;;3.60;95.20;;;;;;2063563;28;20287;-69
2022/03/15 02:34:11;;;;;;;2.10;1.40;;;3.60;95.50;;;;;;2063821;28;20231;-69
2022/03/15 02:35:11;;;;;;;3.00;1.30;;;3.60;95.40;;;;;;2063895;28;20339;-70
2022/03/15 02:36:13;;;;;;;2.20;1.50;;;3.70;95.50;;;;;;2063864;28;20184;-69
2022/03/15 02:37:13;;;;;;;2.53;1.40;;;3.60;95.10;;;;;;2063878;28;20191;-69
2022/03/15 02:38:14;;;;;;;4.23;1.40;;;3.60;95.30;;;;;;2063796;28;20192;-70
2022/03/15 02:39:16;;;;;;;2.28;1.48;;;3.60;95.80;;;;;;2063953;28;20974;-69
2022/03/15 02:40:16;;;;;;;3.45;1.50;;;3.60;96.30;;;;;;2064358;28;20271;-70
2022/03/15 02:41:17;;;;;;;4.97;1.60;;;3.60;96.00;;;;;;2064089;28;20191;-69
2022/03/15 02:42:18;;;;;;;3.97;1.20;;;3.60;95.60;;;;;;2063771;28;20232;-70
2022/03/15 02:43:19;;;;;;;2.65;1.40;;;3.60;95.50;;;;;;2048080;28;20176;-69
2022/03/15 02:44:20;;;;;;;3.37;1.57;;;3.60;95.30;;;;;;2047725;29;20643;-70
2022/03/15 02:45:20;;;;;;;5.90;1.47;;;3.70;95.80;;;;;;2063892;28;20192;-70
2022/03/15 02:46:21;;;;;;;5.30;2.33;;;3.70;96.10;;;;;;2064487;28;20563;-69
2022/03/15 02:47:21;;;;;;;2.00;1.27;;;3.70;96.00;;;;;;2064572;28;20215;-69
2022/03/15 02:48:22;;;;;;;4.53;1.30;;;3.70;95.70;;;;;;2064451;28;20187;-70
2022/03/15 02:49:23;;;;;;;3.67;1.50;;;3.70;96.10;;;;;;2063916;28;20184;-69
2022/03/15 02:50:24;;;;;;;2.23;1.20;;;3.70;96.40;;;;;;2055702;28;20207;-69
2022/03/15 02:51:25;;;;;;;5.72;1.92;;;3.70;96.40;;;;;;2055344;28;20217;-69
2022/03/15 02:52:28;;;;;;;3.60;1.50;;;3.70;96.90;;;;;;2056048;28;20217;-69
2022/03/15 02:53:28;;;;;;;3.78;1.45;;;3.60;96.70;;;;;;2064160;28;20214;-70
2022/03/15 02:54:29;;;;;;;4.23;1.60;;;3.50;97.00;;;;;;2064458;28;20674;-69
2022/03/15 02:55:32;;;;;;;1.97;1.17;;;3.50;97.40;;;;;;2063784;28;20253;-69
2022/03/15 02:56:36;;;;;;;4.60;1.58;;;3.60;96.90;;;;;;2063780;28;20204;-69
2022/03/15 02:57:37;;;;;;;2.42;1.27;;;3.60;96.20;;;;;;2064364;28;20217;-69
2022/03/15 02:58:39;;;;;;;3.47;1.30;;;3.70;96.20;;;;;;2064410;28;20185;-69
2022/03/15 02:59:40;;;;;;;3.38;1.77;;;3.70;96.10;;;;;;2064426;28;20287;-69
2022/03/15 03:00:41;;;;;;;3.70;1.60;;;3.70;96.10;;;;;;2064462;28;20184;-69
2022/03/15 03:01:46;;;;;;;3.38;1.63;;;3.80;96.20;;;;;;2063840;28;20177;-70
2022/03/15 03:02:46;;;;;;;3.83;1.50;;;3.80;96.00;;;;;;2063714;28;20251;-70
2022/03/15 03:03:47;;;;;;;3.50;1.93;;;3.80;96.00;;;;;;2063884;28;20185;-69
2022/03/15 03:04:48;;;;;;;3.35;1.50;;;3.80;95.80;;;;;;2064362;28;20177;-69
2022/03/15 03:05:49;;;;;;;3.80;1.47;;;3.70;96.20;;;;;;2063821;28;20212;-70
2022/03/15 03:06:49;;;;;;;5.30;1.53;;;3.70;96.50;;;;;;2055665;28;20278;-69
2022/03/15 03:07:50;;;;;;;2.83;1.77;;;3.80;96.40;;;;;;2055803;28;20185;-69
2022/03/15 03:08:52;;;;;;;3.33;1.38;;;3.80;96.40;;;;;;2063769;28;20226;-70
2022/03/15 03:09:53;;;;;;;2.53;1.52;;;3.90;96.50;;;;;;2064507;28;20187;-69
2022/03/15 03:10:55;;;;;;;3.42;1.70;;;3.90;96.00;;;;;;2063314;28;20848;-69
2022/03/15 03:11:57;;;;;;;2.30;1.40;;;3.90;95.90;;;;;;2055152;28;20208;-70
2022/03/15 03:12:59;;;;;;;2.63;1.38;;;4.00;95.60;;;;;;2056054;28;20563;-70
2022/03/15 03:14:00;;;;;;;4.82;1.67;;;4.00;95.50;;;;;;2064001;28;20199;-69
2022/03/15 03:15:02;;;;;;;2.88;1.70;;;4.00;95.30;;;;;;2063796;28;20183;-70
2022/03/15 03:16:06;;;;;;;4.38;1.50;;;4.10;95.20;;;;;;2063907;28;20612;-70
2022/03/15 03:17:07;;;;;;;5.35;1.95;;;4.10;93.90;;;;;;2064284;28;20188;-69
2022/03/15 03:18:09;;;;;;;3.90;1.80;;;4.10;94.00;;;;;;2064447;28;20279;-69
2022/03/15 03:19:10;;;;;;;3.03;1.55;;;4.10;94.00;;;;;;2064900;28;20176;-70
2022/03/15 03:20:18;;;;;;;3.67;1.73;;;4.00;94.80;;;;;;2066049;28;20187;-70
2022/03/15 03:21:19;;;;;;;4.55;1.40;;;4.00;95.40;;;;;;2065365;28;20644;-70
2022/03/15 03:22:19;;;;;;;3.57;1.67;;;4.10;95.30;;;;;;2066029;28;20176;-68
2022/03/15 03:23:21;;;;;;;2.73;1.50;;;4.10;95.40;;;;;;2065985;28;20211;-69
2022/03/15 03:24:24;;;;;;;4.30;1.52;;;4.10;95.50;;;;;;2065479;28;20180;-69
2022/03/15 03:25:26;;;;;;;2.05;1.70;;;4.20;95.30;;;;;;2057483;28;20776;-69
2022/03/15 03:26:27;;;;;;;5.32;1.70;;;4.10;95.30;;;;;;2065472;28;20272;-69
2022/03/15 03:27:33;;;;;;;2.40;1.40;;;4.10;95.60;;;;;;2065908;28;20203;-69
2022/03/15 03:28:38;;;;;;;4.80;1.90;;;4.10;95.70;;;;;;2064434;28;20188;-68
2022/03/15 03:29:40;;;;;;;13.63;1.73;;;4.20;95.00;;;;;;2065171;28;20185;-70
2022/03/15 03:30:46;;;;;;;4.00;1.63;;;4.20;94.60;;;;;;2065473;28;20201;-69
2022/03/15 03:31:47;;;;;;;4.72;1.65;;;4.30;94.80;;;;;;2064668;28;20183;-70
2022/03/15 03:32:47;;;;;;;3.47;1.60;;;4.30;94.40;;;;;;2065183;28;20244;-69
2022/03/15 03:33:48;;;;;;;4.90;1.77;;;4.20;94.70;;;;;;2065799;28;20185;-69
2022/03/15 03:34:48;;;;;;;3.73;1.50;;;4.20;95.00;;;;;;2065973;28;20666;-70
2022/03/15 03:35:49;;;;;;;3.97;1.93;;;4.20;95.20;;;;;;2065809;28;20246;-70
2022/03/15 03:36:50;;;;;;;4.57;1.63;;;4.20;95.30;;;;;;2065919;28;20189;-69
2022/03/15 03:37:51;;;;;;;2.53;1.47;;;4.20;95.50;;;;;;2065775;28;20593;-70
2022/03/15 03:38:51;;;;;;;2.23;1.27;;;4.30;95.70;;;;;;2065935;28;20223;-70
2022/03/15 03:39:53;;;;;;;2.50;1.50;;;4.30;94.80;;;;;;2065894;28;20209;-69
2022/03/15 03:40:54;;;;;;;2.00;1.27;;;4.40;94.60;;;;;;2065374;28;20184;-70
2022/03/15 03:41:55;;;;;;;1.42;1.27;;;4.50;93.80;;;;;;2064537;28;20172;-68
2022/03/15 03:42:56;;;;;;;2.22;1.33;;;4.40;93.50;;;;;;2065774;28;20576;-68
2022/03/15 03:43:57;;;;;;;2.40;1.60;;;4.30;93.70;;;;;;2065733;28;20182;-68
2022/03/15 03:44:57;;;;;;;4.50;1.30;;;4.20;94.00;;;;;;2065109;28;20180;-69
2022/03/15 03:45:59;;;;;;;3.47;1.40;;;4.20;94.10;;;;;;2065284;28;20181;-68
2022/03/15 03:46:59;;;;;;;2.03;1.30;;;4.10;94.80;;;;;;2065134;28;20181;-68
2022/03/15 03:48:00;;;;;;;4.43;1.30;;;4.10;95.00;;;;;;2065238;28;20658;-69
2022/03/15 03:49:01;;;;;;;2.17;1.30;;;4.10;95.20;;;;;;2065636;28;20260;-68
2022/03/15 03:50:04;;;;;;;4.30;1.10;;;4.10;95.40;;;;;;2065811;28;20651;-69
2022/03/15 03:51:05;;;;;;;2.85;1.45;;;4.10;95.60;;;;;;2064484;28;20177;-69
2022/03/15 03:52:07;;;;;;;4.33;1.43;;;4.10;95.60;;;;;;2065024;28;20216;-69
2022/03/15 03:53:09;;;;;;;1.60;1.30;;;4.20;95.50;;;;;;2065347;28;20514;-69
2022/03/15 03:54:09;;;;;;;4.32;1.50;;;4.20;95.20;;;;;;2065141;28;20200;-68
2022/03/15 03:55:11;;;;;;;3.00;1.60;;;4.10;95.50;;;;;;2064875;28;20191;-68
2022/03/15 03:56:11;;;;;;;2.33;1.50;;;4.00;96.00;;;;;;2065144;28;20185;-68
2022/03/15 03:57:12;;;;;;;3.43;1.37;;;4.10;96.30;;;;;;2065421;28;20195;-68
2022/03/15 03:58:13;;;;;;;2.43;1.50;;;4.10;96.10;;;;;;2065601;28;20225;-69
2022/03/15 03:59:14;;;;;;;3.03;1.63;;;4.20;96.20;;;;;;2065666;28;20208;-69
2022/03/15 04:00:16;;;;;;;5.60;1.87;;;4.20;96.10;;;;;;2065696;28;20428;-69
2022/03/15 04:01:16;;;;;;;3.38;1.48;;;4.20;95.90;;;;;;2065402;28;20249;-69
2022/03/15 04:02:17;;;;;;;2.03;1.40;;;4.30;95.50;;;;;;2065807;28;20225;-69
2022/03/15 04:03:19;;;;;;;2.67;1.67;;;4.40;95.50;;;;;;2065862;28;20620;-69
2022/03/15 04:04:20;;;;;;;2.78;1.42;;;4.40;95.10;;;;;;2067225;28;20621;-70
2022/03/15 04:05:21;;;;;;;2.73;1.37;;;4.40;94.80;;;;;;2065020;28;20183;-69
2022/03/15 04:06:22;;;;;;;5.85;1.83;;;4.50;94.80;;;;;;2065785;28;20512;-70
2022/03/15 04:07:22;;;;;;;3.47;1.37;;;4.50;94.90;;;;;;2065717;28;20199;-68
2022/03/15 04:08:24;;;;;;;3.30;1.47;;;4.50;94.60;;;;;;2065668;28;20186;-68
2022/03/15 04:09:25;;;;;;;2.33;1.20;;;4.60;94.30;;;;;;2065031;28;20185;-69
2022/03/15 04:10:31;;;;;;;2.93;1.50;;;4.60;93.80;;;;;;2064979;28;20186;-69
2022/03/15 04:11:32;;;;;;;3.33;1.45;;;4.50;93.60;;;;;;2064296;28;20228;-69
2022/03/15 04:12:34;;;;;;;2.97;1.77;;;4.50;93.90;;;;;;2057850;28;20239;-69
2022/03/15 04:13:36;;;;;;;3.72;1.73;;;4.50;93.90;;;;;;2049018;28;20666;-69
2022/03/15 04:14:37;;;;;;;2.92;1.80;;;4.50;93.80;;;;;;2041549;28;20206;-69
2022/03/15 04:15:38;;;;;;;2.50;1.37;;;4.60;93.70;;;;;;2049089;28;20588;-70
2022/03/15 04:16:40;;;;;;;2.60;1.77;;;4.60;93.40;;;;;;2056977;28;20177;-69
2022/03/15 04:17:41;;;;;;;4.75;1.60;;;4.50;94.10;;;;;;2056903;28;20680;-69
2022/03/15 04:18:42;;;;;;;4.67;1.70;;;4.50;94.60;;;;;;2065084;28;20188;-69
2022/03/15 04:19:42;;;;;;;3.30;1.60;;;4.50;94.80;;;;;;2065500;28;20192;-69
2022/03/15 04:20:44;;;;;;;4.50;1.40;;;4.50;94.80;;;;;;2065647;28;20191;-69
2022/03/15 04:21:45;;;;;;;3.00;1.85;;;4.50;94.60;;;;;;2064244;28;20197;-69
2022/03/15 04:22:45;;;;;;;2.13;1.30;;;4.50;94.60;;;;;;2064884;28;20229;-69
2022/03/15 04:23:46;;;;;;;3.00;1.63;;;4.50;94.40;;;;;;2065439;28;20671;-70
2022/03/15 04:24:47;;;;;;;2.70;1.30;;;4.60;94.60;;;;;;2065557;28;20181;-69
2022/03/15 04:25:48;;;;;;;2.13;1.20;;;4.60;94.40;;;;;;2064816;28;20253;-69
2022/03/15 04:26:49;;;;;;;3.97;1.65;;;4.50;94.70;;;;;;2056764;28;20664;-69
2022/03/15 04:27:49;;;;;;;2.30;1.30;;;4.60;94.60;;;;;;2064801;28;20179;-69
2022/03/15 04:28:51;;;;;;;3.90;1.30;;;4.60;93.80;;;;;;2072948;28;20316;-69
2022/03/15 04:29:52;;;;;;;3.80;1.77;;;4.60;93.80;;;;;;2064601;28;20185;-69
2022/03/15 04:30:53;;;;;;;5.97;1.13;;;4.70;93.60;;;;;;2065483;28;20281;-69
2022/03/15 04:31:54;;;;;;;2.33;1.33;;;4.60;93.30;;;;;;2064149;28;20185;-69
2022/03/15 04:32:55;;;;;;;3.03;1.23;;;4.70;93.40;;;;;;2056594;28;20213;-69
2022/03/15 04:33:55;;;;;;;3.38;1.30;;;4.60;93.90;;;;;;2064793;28;20215;-69
2022/03/15 04:34:56;;;;;;;2.20;1.50;;;4.50;94.00;;;;;;2065376;28;20192;-69
2022/03/15 04:35:57;;;;;;;4.13;1.60;;;4.50;94.00;;;;;;2065467;28;20534;-69
2022/03/15 04:36:58;;;;;;;3.80;1.60;;;4.50;93.90;;;;;;2065310;28;20216;-68
2022/03/15 04:37:59;;;;;;;2.55;1.80;;;4.50;93.80;;;;;;2072641;28;20212;-69
2022/03/15 04:38:59;;;;;;;2.57;1.50;;;4.40;93.90;;;;;;2072875;28;20609;-68
2022/03/15 04:40:01;;;;;;;3.63;1.43;;;4.40;93.90;;;;;;2065496;28;20320;-69
2022/03/15 04:41:05;;;;;;;2.70;1.40;;;4.50;94.10;;;;;;2065292;28;20170;-68
2022/03/15 04:42:07;;;;;;;3.30;1.40;;;4.60;93.70;;;;;;2064576;28;20736;-68
2022/03/15 04:43:07;;;;;;;4.10;1.60;;;4.70;93.10;;;;;;2064671;28;20411;-69
2022/03/15 04:44:08;;;;;;;4.77;1.93;;;4.60;92.60;;;;;;2064882;28;20314;-69
2022/03/15 04:45:10;;;;;;;5.13;1.87;;;4.60;92.60;;;;;;2064710;28;20190;-69
2022/03/15 04:46:11;;;;;;;2.55;1.30;;;4.60;93.10;;;;;;2065448;28;20206;-69
2022/03/15 04:47:13;;;;;;;2.10;1.50;;;4.60;93.40;;;;;;2072767;28;20192;-68
2022/03/15 04:48:15;;;;;;;3.45;1.40;;;4.70;93.40;;;;;;2064797;28;20190;-69
2022/03/15 04:49:16;;;;;;;2.33;1.70;;;4.60;93.40;;;;;;2064610;28;20267;-68
2022/03/15 04:50:17;;;;;;;1.85;1.40;;;4.60;93.50;;;;;;2064718;28;20181;-69
2022/03/15 04:51:17;;;;;;;2.67;1.40;;;4.60;93.80;;;;;;2064006;28;20281;-68
2022/03/15 04:52:18;;;;;;;3.63;1.60;;;4.60;93.70;;;;;;2065240;28;20193;-68
2022/03/15 04:53:19;;;;;;;2.87;1.43;;;4.60;93.60;;;;;;2064530;28;20249;-69
2022/03/15 04:54:20;;;;;;;3.57;1.73;;;4.60;93.80;;;;;;2064663;28;20178;-68
2022/03/15 04:55:20;;;;;;;3.40;1.50;;;4.60;94.10;;;;;;2065150;28;20173;-69
2022/03/15 04:56:23;;;;;;;6.83;3.87;;;4.60;94.00;;;;;;2065325;28;20184;-68
2022/03/15 04:57:23;;;;;;;3.25;1.95;;;4.70;94.10;;;;;;2072443;28;20719;-68
2022/03/15 04:58:25;;;;;;;3.10;1.77;;;4.80;93.60;;;;;;2064637;28;20178;-68
2022/03/15 04:59:26;;;;;;;3.38;1.50;;;4.80;93.10;;;;;;2064500;28;20209;-68
2022/03/15 05:00:27;;;;;;;5.97;1.87;;;4.80;93.20;;;;;;2065294;28;20189;-69
2022/03/15 05:01:27;;;;;;;3.67;1.70;;;4.80;93.50;;;;;;2063873;28;20188;-69
2022/03/15 05:02:28;;;;;;;5.03;1.80;;;4.80;93.40;;;;;;2064525;28;20369;-68
2022/03/15 05:03:29;;;;;;;3.07;1.80;;;4.90;93.40;;;;;;2065070;28;20216;-69
2022/03/15 05:04:29;;;;;;;2.87;1.80;;;4.90;92.90;;;;;;2065232;28;20186;-68
2022/03/15 05:05:30;;;;;;;3.77;1.60;;;4.80;93.10;;;;;;2064521;28;20611;-68
2022/03/15 05:06:31;;;;;;;2.90;1.87;;;4.90;93.50;;;;;;2056531;28;20600;-69
2022/03/15 05:07:32;;;;;;;4.57;2.10;;;4.80;93.60;;;;;;2056298;28;20210;-68
2022/03/15 05:08:32;;;;;;;4.17;1.83;;;4.80;93.40;;;;;;2064630;28;20202;-68
2022/03/15 05:09:33;;;;;;;3.10;1.70;;;4.80;93.90;;;;;;2065080;28;20188;-69
2022/03/15 05:11:53;;;;;;;2.03;1.83;;;4.80;93.90;;;;;;2064156;28;20189;-69
2022/03/15 05:12:53;;;;;;;4.43;2.10;;;4.80;94.10;;;;;;2064619;28;20315;-68
2022/03/15 05:13:54;;;;;;;2.53;1.80;;;4.90;94.00;;;;;;2064457;28;20727;-69
2022/03/15 05:14:55;;;;;;;3.70;1.90;;;5.00;94.00;;;;;;2065149;28;20193;-68
2022/03/15 05:15:55;;;;;;;2.93;1.93;;;4.90;94.00;;;;;;2065066;28;20186;-68
2022/03/15 05:16:56;;;;;;;4.13;2.40;;;4.90;94.00;;;;;;2064558;28;20242;-69
2022/03/15 05:17:57;;;;;;;3.73;2.03;;;4.80;94.60;;;;;;2064355;28;20316;-70
2022/03/15 05:18:58;;;;;;;5.20;1.93;;;4.80;95.20;;;;;;2064528;28;20272;-69
2022/03/15 05:19:58;;;;;;;3.97;1.50;;;4.90;95.20;;;;;;2064287;28;20177;-69
2022/03/15 05:20:59;;;;;;;3.90;1.60;;;4.90;95.40;;;;;;2065111;28;20305;-70
2022/03/15 05:22:00;;;;;;;6.20;1.70;;;4.90;95.30;;;;;;2071718;28;20186;-69
2022/03/15 05:23:00;;;;;;;6.67;2.70;;;4.90;95.00;;;;;;2072744;28;20193;-69
2022/03/15 05:24:01;;;;;;;2.60;2.00;;;4.90;94.30;;;;;;2064942;28;20182;-70
2022/03/15 05:25:03;;;;;;;2.33;1.70;;;4.90;95.10;;;;;;2064379;28;20185;-69